createdAt,value
2019-04-19T00:00:17.596Z,1022.47
2019-04-19T00:01:15.417Z,1022.46
2019-04-19T00:02:15.305Z,1022.48
2019-04-19T00:03:20.316Z,1022.51
2019-04-19T00:04:16.883Z,1022.50
2019-04-19T00:05:13.229Z,1022.45
2019-04-19T00:06:18.993Z,1022.47
2019-04-19T00:07:19.609Z,1022.48
2019-04-19T00:08:28.807Z,1022.49
2019-04-19T00:09:28.921Z,1022.47
2019-04-19T00:10:24.931Z,1022.45
2019-04-19T00:11:25.796Z,1022.44
2019-04-19T00:12:25.321Z,1022.49
2019-04-19T00:13:13.564Z,1022.48
2019-04-19T00:14:13.144Z,1022.44
2019-04-19T00:15:13.923Z,1022.47
2019-04-19T00:16:13.183Z,1022.46
2019-04-19T00:17:19.832Z,1022.49
2019-04-19T00:18:16.414Z,1022.45
2019-04-19T00:19:30.614Z,1022.46
2019-04-19T00:20:32.764Z,1022.44
2019-04-19T00:21:30.451Z,1022.44
2019-04-19T00:22:31.781Z,1022.47
2019-04-19T00:23:23.921Z,1022.44
2019-04-19T00:24:14.398Z,1022.43
2019-04-19T00:25:13.477Z,1022.43
2019-04-19T00:26:14.706Z,1022.40
2019-04-19T00:27:13.991Z,1022.41
2019-04-19T00:28:22.487Z,1022.39
2019-04-19T00:29:22.573Z,1022.42
2019-04-19T00:30:24.324Z,1022.40
2019-04-19T00:31:27.709Z,1022.39
2019-04-19T00:32:30.352Z,1022.41
2019-04-19T00:33:25.064Z,1022.46
2019-04-19T00:34:14.689Z,1022.43
2019-04-19T00:35:13.720Z,1022.42
2019-04-19T00:36:15.270Z,1022.40
2019-04-19T00:37:14.439Z,1022.43
2019-04-19T00:38:25.240Z,1022.43
2019-04-19T00:39:31.503Z,1022.40
2019-04-19T00:40:33.085Z,1022.37
2019-04-19T00:41:28.240Z,1022.40
2019-04-19T00:42:32.714Z,1022.39
2019-04-19T00:43:35.964Z,1022.40
2019-04-19T00:44:33.054Z,1022.38
2019-04-19T00:46:29.278Z,1022.40
2019-04-19T00:47:31.076Z,1022.44
2019-04-19T00:48:29.792Z,1022.41
2019-04-19T00:49:22.986Z,1022.38
2019-04-19T00:50:23.931Z,1022.44
2019-04-19T00:51:25.118Z,1022.42
2019-04-19T00:52:34.240Z,1022.42
2019-04-19T00:53:27.517Z,1022.39
2019-04-19T00:54:22.785Z,1022.43
2019-04-19T00:55:22.833Z,1022.43
2019-04-19T00:56:23.510Z,1022.40
2019-04-19T00:57:21.679Z,1022.40
2019-04-19T00:58:20.110Z,1022.37
2019-04-19T00:59:16.639Z,1022.40
2019-04-19T01:00:18.753Z,1022.38
2019-04-19T01:01:19.805Z,1022.40
2019-04-19T01:02:17.383Z,1022.38
2019-04-19T01:03:16.171Z,1022.40
2019-04-19T01:04:20.440Z,1022.39
2019-04-19T01:05:18.113Z,1022.43
2019-04-19T01:06:18.271Z,1022.47
2019-04-19T01:07:22.167Z,1022.37
2019-04-19T01:08:20.789Z,1022.41
2019-04-19T01:09:28.567Z,1022.45
2019-04-19T01:10:26.775Z,1022.44
2019-04-19T01:11:27.690Z,1022.44
2019-04-19T01:12:22.652Z,1022.46
2019-04-19T01:13:29.366Z,1022.46
2019-04-19T01:14:29.046Z,1022.47
2019-04-19T01:15:26.299Z,1022.46
2019-04-19T01:16:25.631Z,1022.48
2019-04-19T01:17:28.529Z,1022.48
2019-04-19T01:18:25.387Z,1022.49
2019-04-19T01:19:17.888Z,1022.48
2019-04-19T01:20:15.642Z,1022.47
2019-04-19T01:21:15.404Z,1022.51
2019-04-19T01:22:21.206Z,1022.49
2019-04-19T01:23:16.718Z,1022.54
2019-04-19T01:24:17.994Z,1022.50
2019-04-19T01:25:16.140Z,1022.55
2019-04-19T01:26:15.541Z,1022.59
2019-04-19T01:27:20.456Z,1022.56
2019-04-19T01:28:19.579Z,1022.55
2019-04-19T01:29:18.052Z,1022.58
2019-04-19T01:30:17.968Z,1022.58
2019-04-19T01:31:19.123Z,1022.57
2019-04-19T01:32:17.076Z,1022.56
2019-04-19T01:33:14.691Z,1022.60
2019-04-19T01:34:18.156Z,1022.55
2019-04-19T01:35:18.354Z,1022.61
2019-04-19T01:36:14.715Z,1022.59
2019-04-19T01:37:19.520Z,1022.55
2019-04-19T01:38:15.184Z,1022.54
2019-04-19T01:39:30.382Z,1022.54
2019-04-19T01:40:29.347Z,1022.57
2019-04-19T01:41:31.751Z,1022.54
2019-04-19T01:42:35.423Z,1022.54
2019-04-19T01:43:35.723Z,1022.56
2019-04-19T01:44:33.278Z,1022.58
2019-04-19T01:45:30.196Z,1022.53
2019-04-19T01:46:35.701Z,1022.55
2019-04-19T01:47:37.482Z,1022.58
2019-04-19T01:48:33.863Z,1022.59
2019-04-19T01:49:25.891Z,1022.56
2019-04-19T01:50:31.656Z,1022.60
2019-04-19T01:51:36.757Z,1022.56
2019-04-19T01:52:40.944Z,1022.60
2019-04-19T01:53:33.118Z,1022.60
2019-04-19T01:54:29.872Z,1022.58
2019-04-19T01:55:23.626Z,1022.62
2019-04-19T01:56:18.107Z,1022.59
2019-04-19T01:57:16.370Z,1022.62
2019-04-19T01:58:18.921Z,1022.62
2019-04-19T01:59:15.995Z,1022.66
2019-04-19T02:00:26.126Z,1022.65
2019-04-19T02:01:20.623Z,1022.64
2019-04-19T02:02:18.106Z,1022.66
2019-04-19T02:03:15.224Z,1022.67
2019-04-19T02:04:20.747Z,1022.64
2019-04-19T02:05:18.244Z,1022.63
2019-04-19T02:06:17.751Z,1022.62
2019-04-19T02:07:19.706Z,1022.65
2019-04-19T02:08:16.414Z,1022.67
2019-04-19T02:09:26.869Z,1022.69
2019-04-19T02:10:34.737Z,1022.66
2019-04-19T02:11:27.740Z,1022.69
2019-04-19T02:12:30.397Z,1022.66
2019-04-19T02:13:24.779Z,1022.70
2019-04-19T02:14:22.066Z,1022.68
2019-04-19T02:15:26.790Z,1022.68
2019-04-19T02:16:20.051Z,1022.73
2019-04-19T02:17:18.036Z,1022.72
2019-04-19T02:18:21.881Z,1022.76
2019-04-19T02:19:19.516Z,1022.76
2019-04-19T02:20:17.041Z,1022.78
2019-04-19T02:21:24.501Z,1022.76
2019-04-19T02:22:22.792Z,1022.78
2019-04-19T02:23:17.320Z,1022.77
2019-04-19T02:24:16.915Z,1022.77
2019-04-19T02:25:20.973Z,1022.80
2019-04-19T02:26:19.676Z,1022.76
2019-04-19T02:27:16.948Z,1022.81
2019-04-19T02:28:23.025Z,1022.79
2019-04-19T02:29:20.241Z,1022.77
2019-04-19T02:30:26.960Z,1022.80
2019-04-19T02:31:35.964Z,1022.80
2019-04-19T02:32:32.440Z,1022.76
2019-04-19T02:33:43.010Z,1022.77
2019-04-19T02:34:43.018Z,1022.80
2019-04-19T02:35:41.893Z,1022.83
2019-04-19T02:36:53.852Z,1022.79
2019-04-19T02:37:37.670Z,1022.83
2019-04-19T02:38:52.099Z,1022.84
2019-04-19T02:39:45.479Z,1022.80
2019-04-19T02:40:52.857Z,1022.80
2019-04-19T02:41:38.249Z,1022.85
2019-04-19T02:43:54.322Z,1022.91
2019-04-19T02:44:57.988Z,1022.90
2019-04-19T02:45:45.457Z,1022.85
2019-04-19T02:48:48.079Z,1022.88
2019-04-19T02:49:57.982Z,1022.90
2019-04-19T02:51:44.960Z,1022.92
2019-04-19T02:52:57.029Z,1022.92
2019-04-19T02:53:47.030Z,1022.95
2019-04-19T02:54:58.670Z,1022.91
2019-04-19T02:55:50.044Z,1022.93
2019-04-19T02:56:52.192Z,1022.90
2019-04-19T02:57:42.402Z,1022.93
2019-04-19T02:58:42.010Z,1022.91
2019-04-19T02:59:50.660Z,1022.87
2019-04-19T03:00:43.673Z,1022.88
2019-04-19T03:01:44.365Z,1022.90
2019-04-19T03:02:47.792Z,1022.89
2019-04-19T03:03:32.192Z,1022.92
2019-04-19T03:04:53.332Z,1022.88
2019-04-19T03:05:36.972Z,1022.91
2019-04-19T03:06:29.211Z,1022.87
2019-04-19T03:07:17.535Z,1022.88
2019-04-19T03:08:16.597Z,1022.88
2019-04-19T03:09:17.489Z,1022.85
2019-04-19T03:10:18.285Z,1022.84
2019-04-19T03:11:36.495Z,1022.89
2019-04-19T03:12:37.900Z,1022.90
2019-04-19T03:13:33.351Z,1022.93
2019-04-19T03:14:31.651Z,1022.93
2019-04-19T03:15:37.174Z,1022.90
2019-04-19T03:16:37.107Z,1022.89
2019-04-19T03:17:34.682Z,1022.90
2019-04-19T03:18:46.832Z,1022.96
2019-04-19T03:19:27.709Z,1022.96
2019-04-19T03:20:30.117Z,1022.94
2019-04-19T03:21:31.947Z,1022.97
2019-04-19T03:22:28.107Z,1022.97
2019-04-19T03:23:30.689Z,1022.99
2019-04-19T03:24:30.195Z,1022.99
2019-04-19T03:25:29.164Z,1023.00
2019-04-19T03:26:33.645Z,1023.07
2019-04-19T03:27:24.240Z,1022.98
2019-04-19T03:28:26.142Z,1023.04
2019-04-19T03:29:24.548Z,1023.03
2019-04-19T03:30:37.933Z,1023.04
2019-04-19T03:33:04.648Z,1023.06
2019-04-19T03:33:52.866Z,1023.05
2019-04-19T03:34:51.885Z,1023.04
2019-04-19T03:35:40.966Z,1023.05
2019-04-19T03:36:32.093Z,1023.03
2019-04-19T03:37:39.965Z,1023.08
2019-04-19T03:38:35.030Z,1023.05
2019-04-19T03:39:37.146Z,1023.03
2019-04-19T03:40:37.415Z,1023.07
2019-04-19T03:41:46.756Z,1023.06
2019-04-19T03:42:40.903Z,1023.02
2019-04-19T03:43:35.305Z,1023.03
2019-04-19T03:44:32.326Z,1023.01
2019-04-19T03:45:33.537Z,1023.07
2019-04-19T03:46:40.667Z,1023.08
2019-04-19T03:47:37.703Z,1023.04
2019-04-19T03:48:42.386Z,1023.05
2019-04-19T03:50:34.096Z,1023.09
2019-04-19T03:51:40.619Z,1023.09
2019-04-19T03:52:36.996Z,1023.11
2019-04-19T03:53:46.294Z,1023.14
2019-04-19T03:54:32.706Z,1023.09
2019-04-19T03:55:39.408Z,1023.09
2019-04-19T03:56:36.222Z,1023.08
2019-04-19T03:57:31.341Z,1023.09
2019-04-19T03:58:21.495Z,1023.08
2019-04-19T03:59:18.326Z,1023.10
2019-04-19T04:00:17.488Z,1023.09
2019-04-19T04:01:17.399Z,1023.10
2019-04-19T04:02:24.551Z,1023.12
2019-04-19T04:03:24.292Z,1023.10
2019-04-19T04:04:22.252Z,1023.10
2019-04-19T04:05:19.510Z,1023.12
2019-04-19T04:06:22.014Z,1023.11
2019-04-19T04:07:22.780Z,1023.12
2019-04-19T04:08:21.124Z,1023.11
2019-04-19T04:09:18.284Z,1023.12
2019-04-19T04:10:23.950Z,1023.15
2019-04-19T04:11:22.490Z,1023.17
2019-04-19T04:12:32.210Z,1023.19
2019-04-19T04:13:30.701Z,1023.22
2019-04-19T04:14:26.996Z,1023.21
2019-04-19T04:15:36.468Z,1023.21
2019-04-19T04:16:28.040Z,1023.19
2019-04-19T04:17:18.568Z,1023.16
2019-04-19T04:18:17.739Z,1023.21
2019-04-19T04:19:18.612Z,1023.19
2019-04-19T04:20:17.832Z,1023.22
2019-04-19T04:21:22.483Z,1023.25
2019-04-19T04:22:24.869Z,1023.24
2019-04-19T04:23:25.413Z,1023.23
2019-04-19T04:24:24.872Z,1023.26
2019-04-19T04:25:22.604Z,1023.21
2019-04-19T04:26:27.772Z,1023.23
2019-04-19T04:27:31.648Z,1023.25
2019-04-19T04:28:35.248Z,1023.23
2019-04-19T04:29:27.393Z,1023.22
2019-04-19T04:30:27.637Z,1023.27
2019-04-19T04:31:26.322Z,1023.28
2019-04-19T04:32:34.115Z,1023.26
2019-04-19T04:33:32.706Z,1023.23
2019-04-19T04:34:33.251Z,1023.28
2019-04-19T04:35:30.610Z,1023.30
2019-04-19T04:36:36.478Z,1023.29
2019-04-19T04:37:35.690Z,1023.29
2019-04-19T04:38:25.710Z,1023.28
2019-04-19T04:39:18.083Z,1023.29
2019-04-19T04:40:18.824Z,1023.32
2019-04-19T04:41:24.450Z,1023.31
2019-04-19T04:42:26.854Z,1023.32
2019-04-19T04:43:33.436Z,1023.37
2019-04-19T04:44:36.349Z,1023.35
2019-04-19T04:45:35.489Z,1023.36
2019-04-19T04:46:38.897Z,1023.36
2019-04-19T04:47:37.077Z,1023.34
2019-04-19T04:48:38.947Z,1023.34
2019-04-19T04:49:43.364Z,1023.41
2019-04-19T04:50:48.284Z,1023.41
2019-04-19T04:51:36.328Z,1023.42
2019-04-19T04:52:23.845Z,1023.39
2019-04-19T04:53:19.362Z,1023.37
2019-04-19T04:54:18.611Z,1023.41
2019-04-19T04:55:18.370Z,1023.37
2019-04-19T04:56:19.424Z,1023.41
2019-04-19T04:57:28.525Z,1023.43
2019-04-19T04:58:25.133Z,1023.42
2019-04-19T04:59:22.263Z,1023.41
2019-04-19T05:00:22.250Z,1023.45
2019-04-19T05:01:32.397Z,1023.46
2019-04-19T05:02:35.402Z,1023.48
2019-04-19T05:03:40.143Z,1023.53
2019-04-19T05:04:29.481Z,1023.52
2019-04-19T05:05:34.767Z,1023.53
2019-04-19T05:06:35.322Z,1023.53
2019-04-19T05:07:45.645Z,1023.53
2019-04-19T05:08:36.237Z,1023.57
2019-04-19T05:09:40.902Z,1023.58
2019-04-19T05:10:31.703Z,1023.56
2019-04-19T05:11:35.113Z,1023.59
2019-04-19T05:12:54.769Z,1023.64
2019-04-19T05:13:39.156Z,1023.61
2019-04-19T05:14:36.235Z,1023.60
2019-04-19T05:15:39.976Z,1023.62
2019-04-19T05:17:47.317Z,1023.62
2019-04-19T05:18:36.457Z,1023.65
2019-04-19T05:19:40.531Z,1023.64
2019-04-19T05:20:35.654Z,1023.64
2019-04-19T05:21:37.360Z,1023.65
2019-04-19T05:22:32.644Z,1023.64
2019-04-19T05:23:34.191Z,1023.70
2019-04-19T05:24:49.411Z,1023.72
2019-04-19T05:25:41.656Z,1023.70
2019-04-19T05:26:45.022Z,1023.67
2019-04-19T05:27:40.246Z,1023.72
2019-04-19T05:28:37.524Z,1023.70
2019-04-19T05:29:29.641Z,1023.71
2019-04-19T05:30:19.673Z,1023.70
2019-04-19T05:31:29.026Z,1023.73
2019-04-19T05:32:24.161Z,1023.68
2019-04-19T05:33:34.256Z,1023.72
2019-04-19T05:34:36.501Z,1023.71
2019-04-19T05:35:29.575Z,1023.76
2019-04-19T05:36:39.165Z,1023.76
2019-04-19T05:37:38.469Z,1023.72
2019-04-19T05:38:43.167Z,1023.75
2019-04-19T05:39:43.822Z,1023.72
2019-04-19T05:40:37.693Z,1023.78
2019-04-19T05:41:34.968Z,1023.75
2019-04-19T05:42:37.137Z,1023.76
2019-04-19T05:43:57.327Z,1023.71
2019-04-19T05:44:42.456Z,1023.75
2019-04-19T05:45:51.861Z,1023.73
2019-04-19T05:46:42.484Z,1023.74
2019-04-19T05:47:33.640Z,1023.76
2019-04-19T05:48:31.591Z,1023.72
2019-04-19T05:49:33.779Z,1023.74
2019-04-19T05:50:45.817Z,1023.76
2019-04-19T05:51:43.737Z,1023.71
2019-04-19T05:52:39.875Z,1023.77
2019-04-19T05:53:27.845Z,1023.74
2019-04-19T05:54:20.920Z,1023.75
2019-04-19T05:55:20.761Z,1023.78
2019-04-19T05:56:20.045Z,1023.76
2019-04-19T05:57:36.161Z,1023.81
2019-04-19T05:58:31.433Z,1023.76
2019-04-19T05:59:31.640Z,1023.80
2019-04-19T06:00:36.515Z,1023.75
2019-04-19T06:01:36.450Z,1023.78
2019-04-19T06:02:29.404Z,1023.74
2019-04-19T06:03:27.574Z,1023.78
2019-04-19T06:04:38.969Z,1023.78
2019-04-19T06:05:45.115Z,1023.74
2019-04-19T06:06:42.795Z,1023.75
2019-04-19T06:07:35.723Z,1023.78
2019-04-19T06:08:26.585Z,1023.73
2019-04-19T06:09:19.743Z,1023.74
2019-04-19T06:10:19.735Z,1023.74
2019-04-19T06:11:23.993Z,1023.77
2019-04-19T06:12:25.099Z,1023.75
2019-04-19T06:13:20.683Z,1023.77
2019-04-19T06:14:45.077Z,1023.78
2019-04-19T06:15:43.399Z,1023.79
2019-04-19T06:16:36.834Z,1023.80
2019-04-19T06:17:37.702Z,1023.78
2019-04-19T06:18:32.011Z,1023.75
2019-04-19T06:19:36.307Z,1023.76
2019-04-19T06:20:35.065Z,1023.77
2019-04-19T06:21:36.839Z,1023.77
2019-04-19T06:22:40.662Z,1023.79
2019-04-19T06:23:44.426Z,1023.81
2019-04-19T06:24:40.921Z,1023.81
2019-04-19T06:25:46.025Z,1023.81
2019-04-19T06:26:53.422Z,1023.81
2019-04-19T06:27:55.397Z,1023.79
2019-04-19T06:28:48.574Z,1023.81
2019-04-19T06:29:43.665Z,1023.81
2019-04-19T06:30:42.246Z,1023.79
2019-04-19T06:31:44.780Z,1023.83
2019-04-19T06:32:46.573Z,1023.79
2019-04-19T06:33:37.451Z,1023.79
2019-04-19T06:34:38.900Z,1023.79
2019-04-19T06:35:34.333Z,1023.81
2019-04-19T06:36:20.955Z,1023.89
2019-04-19T06:37:24.761Z,1023.82
2019-04-19T06:38:20.455Z,1023.87
2019-04-19T06:39:20.537Z,1023.87
2019-04-19T06:40:26.538Z,1023.82
2019-04-19T06:41:23.295Z,1023.87
2019-04-19T06:42:31.862Z,1023.90
2019-04-19T06:43:36.270Z,1023.85
2019-04-19T06:44:43.441Z,1023.86
2019-04-19T06:45:34.432Z,1023.88
2019-04-19T06:46:36.076Z,1023.92
2019-04-19T06:47:28.638Z,1023.93
2019-04-19T06:48:26.643Z,1023.90
2019-04-19T06:49:25.159Z,1023.92
2019-04-19T06:50:24.416Z,1023.91
2019-04-19T06:51:28.550Z,1023.93
2019-04-19T06:52:25.933Z,1023.94
2019-04-19T06:53:20.921Z,1023.91
2019-04-19T06:54:29.568Z,1023.97
2019-04-19T06:55:27.714Z,1023.98
2019-04-19T06:56:28.357Z,1023.98
2019-04-19T06:57:27.323Z,1024.00
2019-04-19T06:58:24.839Z,1024.02
2019-04-19T06:59:38.105Z,1024.00
2019-04-19T07:00:38.326Z,1024.05
2019-04-19T07:01:31.757Z,1024.02
2019-04-19T07:02:21.934Z,1024.06
2019-04-19T07:03:21.608Z,1024.03
2019-04-19T07:04:21.163Z,1024.08
2019-04-19T07:05:33.770Z,1024.04
2019-04-19T07:06:37.308Z,1024.08
2019-04-19T07:07:36.454Z,1024.05
2019-04-19T07:09:44.766Z,1024.07
2019-04-19T07:11:46.549Z,1024.07
2019-04-19T07:12:40.291Z,1024.09
2019-04-19T07:13:33.565Z,1024.07
2019-04-19T07:14:24.981Z,1024.10
2019-04-19T07:16:40.630Z,1024.05
2019-04-19T07:17:37.589Z,1024.10
2019-04-19T07:18:33.806Z,1024.07
2019-04-19T07:19:41.089Z,1024.06
2019-04-19T07:20:34.859Z,1024.09
2019-04-19T07:21:40.828Z,1024.11
2019-04-19T07:22:39.001Z,1024.09
2019-04-19T07:23:38.588Z,1024.09
2019-04-19T07:24:44.284Z,1024.13
2019-04-19T07:25:54.418Z,1024.14
2019-04-19T07:26:44.977Z,1024.17
2019-04-19T07:27:34.482Z,1024.16
2019-04-19T07:28:26.409Z,1024.16
2019-04-19T07:29:21.315Z,1024.20
2019-04-19T07:30:22.455Z,1024.17
2019-04-19T07:31:21.711Z,1024.13
2019-04-19T07:32:31.930Z,1024.18
2019-04-19T07:33:31.657Z,1024.16
2019-04-19T07:34:37.218Z,1024.20
2019-04-19T07:35:43.648Z,1024.25
2019-04-19T07:36:40.203Z,1024.23
2019-04-19T07:37:36.313Z,1024.26
2019-04-19T07:38:38.953Z,1024.27
2019-04-19T07:39:48.156Z,1024.27
2019-04-19T07:40:42.980Z,1024.29
2019-04-19T07:41:38.355Z,1024.28
2019-04-19T07:42:39.165Z,1024.33
2019-04-19T07:43:34.857Z,1024.33
2019-04-19T07:44:31.899Z,1024.29
2019-04-19T07:45:30.951Z,1024.27
2019-04-19T07:46:42.559Z,1024.29
2019-04-19T07:47:35.801Z,1024.31
2019-04-19T07:48:24.612Z,1024.33
2019-04-19T07:49:23.232Z,1024.31
2019-04-19T07:50:27.273Z,1024.34
2019-04-19T07:51:28.690Z,1024.35
2019-04-19T07:52:26.117Z,1024.32
2019-04-19T07:53:31.279Z,1024.39
2019-04-19T07:54:25.302Z,1024.36
2019-04-19T07:55:22.692Z,1024.32
2019-04-19T07:56:33.993Z,1024.32
2019-04-19T07:58:44.183Z,1024.33
2019-04-19T07:59:47.106Z,1024.37
2019-04-19T08:01:53.620Z,1024.35
2019-04-19T08:02:49.530Z,1024.39
2019-04-19T08:04:06.698Z,1024.38
2019-04-19T08:04:58.729Z,1024.39
2019-04-19T08:05:59.345Z,1024.43
2019-04-19T08:08:00.832Z,1024.42
2019-04-19T08:09:51.533Z,1024.48
2019-04-19T08:10:49.668Z,1024.42
2019-04-19T08:11:58.868Z,1024.49
2019-04-19T08:12:42.729Z,1024.51
2019-04-19T08:13:58.155Z,1024.49
2019-04-19T08:14:51.743Z,1024.54
2019-04-19T08:15:58.257Z,1024.50
2019-04-19T08:27:31.045Z,1024.56
2019-04-19T08:28:32.518Z,1024.58
2019-04-19T08:29:32.534Z,1024.53
2019-04-19T08:30:33.924Z,1024.60
2019-04-19T08:31:23.183Z,1024.58
2019-04-19T08:32:23.513Z,1024.56
2019-04-19T08:33:23.487Z,1024.60
2019-04-19T08:34:24.790Z,1024.53
2019-04-19T08:35:23.799Z,1024.53
2019-04-19T08:36:28.609Z,1024.56
2019-04-19T08:37:29.942Z,1024.51
2019-04-19T08:38:25.619Z,1024.51
2019-04-19T08:39:43.610Z,1024.51
2019-04-19T08:40:44.078Z,1024.57
2019-04-19T08:41:36.832Z,1024.50
2019-04-19T08:42:46.063Z,1024.54
2019-04-19T08:43:43.828Z,1024.49
2019-04-19T08:44:38.611Z,1024.53
2019-04-19T08:45:26.061Z,1024.54
2019-04-19T08:46:23.959Z,1024.54
2019-04-19T08:47:31.481Z,1024.52
2019-04-19T08:48:33.784Z,1024.53
2019-04-19T08:49:32.617Z,1024.52
2019-04-19T08:50:22.969Z,1024.51
2019-04-19T08:51:28.838Z,1024.54
2019-04-19T08:52:27.301Z,1024.51
2019-04-19T08:53:36.173Z,1024.49
2019-04-19T08:54:43.564Z,1024.48
2019-04-19T08:55:40.656Z,1024.45
2019-04-19T08:56:34.688Z,1024.48
2019-04-19T08:57:26.064Z,1024.46
2019-04-19T08:58:37.724Z,1024.46
2019-04-19T09:00:02.286Z,1024.49
2019-04-19T09:00:52.196Z,1024.46
2019-04-19T09:01:44.461Z,1024.50
2019-04-19T09:02:39.332Z,1024.47
2019-04-19T09:03:47.630Z,1024.44
2019-04-19T09:04:39.723Z,1024.50
2019-04-19T09:05:42.008Z,1024.49
2019-04-19T09:07:22.925Z,1024.53
2019-04-19T09:07:46.911Z,1024.47
2019-04-19T09:08:41.179Z,1024.47
2019-04-19T09:09:48.483Z,1024.44
2019-04-19T09:10:41.899Z,1024.49
2019-04-19T09:11:40.751Z,1024.47
2019-04-19T09:12:47.116Z,1024.46
2019-04-19T09:13:48.127Z,1024.43
2019-04-19T09:14:45.955Z,1024.44
2019-04-19T09:15:37.481Z,1024.42
2019-04-19T09:16:43.436Z,1024.42
2019-04-19T09:18:08.843Z,1024.41
2019-04-19T09:18:51.718Z,1024.37
2019-04-19T09:20:01.103Z,1024.37
2019-04-19T09:20:41.202Z,1024.36
2019-04-19T09:21:39.238Z,1024.39
2019-04-19T09:22:39.485Z,1024.40
2019-04-19T09:23:41.493Z,1024.39
2019-04-19T09:24:37.483Z,1024.34
2019-04-19T09:25:36.258Z,1024.38
2019-04-19T09:26:42.516Z,1024.41
2019-04-19T09:27:48.894Z,1024.39
2019-04-19T09:28:46.089Z,1024.41
2019-04-19T09:29:48.097Z,1024.42
2019-04-19T09:30:43.755Z,1024.41
2019-04-19T09:31:40.145Z,1024.39
2019-04-19T09:32:29.235Z,1024.37
2019-04-19T09:33:29.614Z,1024.36
2019-04-19T09:34:26.656Z,1024.39
2019-04-19T09:35:25.283Z,1024.40
2019-04-19T09:36:30.472Z,1024.41
2019-04-19T09:37:41.655Z,1024.43
2019-04-19T09:38:39.724Z,1024.41
2019-04-19T09:39:36.097Z,1024.44
2019-04-19T09:40:31.192Z,1024.41
2019-04-19T09:41:31.637Z,1024.40
2019-04-19T09:42:37.349Z,1024.36
2019-04-19T09:43:37.946Z,1024.33
2019-04-19T09:44:30.739Z,1024.39
2019-04-19T09:45:25.403Z,1024.36
2019-04-19T09:46:25.362Z,1024.39
2019-04-19T09:47:24.965Z,1024.36
2019-04-19T09:48:43.616Z,1024.32
2019-04-19T09:49:42.986Z,1024.30
2019-04-19T09:50:41.740Z,1024.32
2019-04-19T09:51:45.164Z,1024.28
2019-04-19T09:52:47.081Z,1024.28
2019-04-19T09:53:46.298Z,1024.28
2019-04-19T09:54:46.006Z,1024.33
2019-04-19T09:55:46.926Z,1024.29
2019-04-19T09:56:43.383Z,1024.27
2019-04-19T09:57:44.917Z,1024.28
2019-04-19T09:58:40.520Z,1024.21
2019-04-19T09:59:31.016Z,1024.23
2019-04-19T10:00:28.162Z,1024.24
2019-04-19T10:01:31.017Z,1024.26
2019-04-19T10:02:31.905Z,1024.20
2019-04-19T10:03:31.669Z,1024.24
2019-04-19T10:04:25.142Z,1024.21
2019-04-19T10:05:24.663Z,1024.19
2019-04-19T10:06:24.750Z,1024.18
2019-04-19T10:07:25.008Z,1024.21
2019-04-19T10:08:24.730Z,1024.14
2019-04-19T10:09:26.025Z,1024.21
2019-04-19T10:10:24.975Z,1024.08
2019-04-19T10:11:25.255Z,1024.18
2019-04-19T10:12:25.231Z,1024.20
2019-04-19T10:13:25.818Z,1024.13
2019-04-19T10:14:25.598Z,1024.18
2019-04-19T10:15:24.901Z,1024.18
2019-04-19T10:16:26.296Z,1024.14
2019-04-19T10:17:24.944Z,1024.09
2019-04-19T10:18:24.966Z,1024.10
2019-04-19T10:19:24.990Z,1024.13
2019-04-19T10:20:25.014Z,1024.11
2019-04-19T10:21:31.358Z,1024.10
2019-04-19T10:22:25.300Z,1024.12
2019-04-19T10:23:25.258Z,1024.14
2019-04-19T10:24:27.329Z,1024.09
2019-04-19T10:25:25.418Z,1024.06
2019-04-19T10:26:26.333Z,1024.09
2019-04-19T10:27:25.180Z,1024.11
2019-04-19T10:28:26.585Z,1024.09
2019-04-19T10:29:31.648Z,1024.09
2019-04-19T10:30:26.510Z,1024.08
2019-04-19T10:31:25.432Z,1024.08
2019-04-19T10:32:26.470Z,1024.02
2019-04-19T10:33:34.558Z,1024.07
2019-04-19T10:34:25.346Z,1024.06
2019-04-19T10:35:25.425Z,1024.01
2019-04-19T10:36:26.448Z,1024.01
2019-04-19T10:37:25.922Z,1024.05
2019-04-19T10:38:25.549Z,1024.08
2019-04-19T10:39:25.881Z,1024.01
2019-04-19T10:40:25.829Z,1024.03
2019-04-19T10:41:25.513Z,1023.99
2019-04-19T10:42:25.543Z,1023.99
2019-04-19T10:43:25.563Z,1023.98
2019-04-19T10:44:27.084Z,1023.98
2019-04-19T10:45:25.908Z,1023.95
2019-04-19T10:46:26.857Z,1023.97
2019-04-19T10:47:27.670Z,1023.98
2019-04-19T10:48:25.681Z,1023.98
2019-04-19T10:49:33.287Z,1023.95
2019-04-19T10:50:35.372Z,1023.92
2019-04-19T10:51:25.754Z,1023.97
2019-04-19T10:52:25.945Z,1023.91
2019-04-19T10:53:26.165Z,1023.91
2019-04-19T10:54:26.544Z,1023.94
2019-04-19T10:55:26.512Z,1023.93
2019-04-19T10:56:25.983Z,1023.90
2019-04-19T10:57:27.357Z,1023.86
2019-04-19T10:58:25.921Z,1023.92
2019-04-19T10:59:26.705Z,1023.84
2019-04-19T11:00:27.110Z,1023.90
2019-04-19T11:01:27.334Z,1023.85
2019-04-19T11:02:26.806Z,1023.83
2019-04-19T11:03:26.586Z,1023.89
2019-04-19T11:04:26.893Z,1023.91
2019-04-19T11:05:27.014Z,1023.88
2019-04-19T11:06:27.185Z,1023.87
2019-04-19T11:07:27.487Z,1023.85
2019-04-19T11:08:26.544Z,1023.86
2019-04-19T11:09:26.895Z,1023.89
2019-04-19T11:10:27.393Z,1023.86
2019-04-19T11:11:27.627Z,1023.85
2019-04-19T11:12:26.282Z,1023.91
2019-04-19T11:13:28.752Z,1023.82
2019-04-19T11:14:26.309Z,1023.87
2019-04-19T11:15:26.681Z,1023.85
2019-04-19T11:16:26.357Z,1023.85
2019-04-19T11:17:27.612Z,1023.82
2019-04-19T11:18:27.663Z,1023.86
2019-04-19T11:19:43.234Z,1023.86
2019-04-19T11:20:37.130Z,1023.87
2019-04-19T11:21:27.504Z,1023.85
2019-04-19T11:22:27.757Z,1023.83
2019-04-19T11:23:27.118Z,1023.87
2019-04-19T11:24:27.770Z,1023.82
2019-04-19T11:25:26.574Z,1023.82
2019-04-19T11:26:27.250Z,1023.84
2019-04-19T11:27:26.911Z,1023.88
2019-04-19T11:28:27.110Z,1023.82
2019-04-19T11:29:28.021Z,1023.91
2019-04-19T11:30:26.697Z,1023.88
2019-04-19T11:31:27.760Z,1023.89
2019-04-19T11:32:28.097Z,1023.92
2019-04-19T11:33:26.779Z,1023.87
2019-04-19T11:34:27.190Z,1023.86
2019-04-19T11:35:27.543Z,1023.90
2019-04-19T11:36:26.842Z,1023.84
2019-04-19T11:37:27.524Z,1023.80
2019-04-19T11:38:27.200Z,1023.88
2019-04-19T11:39:27.374Z,1023.85
2019-04-19T11:40:27.200Z,1023.90
2019-04-19T11:41:27.281Z,1023.85
2019-04-19T11:42:27.583Z,1023.84
2019-04-19T11:43:27.482Z,1023.84
2019-04-19T11:44:29.313Z,1023.77
2019-04-19T11:45:28.019Z,1023.82
2019-04-19T11:46:27.715Z,1023.86
2019-04-19T11:47:27.116Z,1023.81
2019-04-19T11:48:27.141Z,1023.74
2019-04-19T11:49:35.285Z,1023.78
2019-04-19T11:50:27.536Z,1023.80
2019-04-19T11:51:27.818Z,1023.79
2019-04-19T11:52:27.997Z,1023.77
2019-04-19T11:53:27.258Z,1023.78
2019-04-19T11:54:28.323Z,1023.65
2019-04-19T11:55:28.558Z,1023.72
2019-04-19T11:56:36.088Z,1023.72
2019-04-19T11:57:28.307Z,1023.72
2019-04-19T11:58:31.187Z,1023.74
2019-04-19T11:59:37.386Z,1023.73
2019-04-19T12:00:27.493Z,1023.68
2019-04-19T12:01:28.045Z,1023.65
2019-04-19T12:02:28.953Z,1023.64
2019-04-19T12:03:27.897Z,1023.68
2019-04-19T12:04:28.195Z,1023.60
2019-04-19T12:05:30.861Z,1023.65
2019-04-19T12:06:27.576Z,1023.68
2019-04-19T12:07:28.365Z,1023.71
2019-04-19T12:08:28.843Z,1023.61
2019-04-19T12:09:27.650Z,1023.61
2019-04-19T12:10:30.424Z,1023.63
2019-04-19T12:11:28.401Z,1023.69
2019-04-19T12:12:27.726Z,1023.72
2019-04-19T12:13:29.090Z,1023.74
2019-04-19T12:14:29.502Z,1023.66
2019-04-19T12:15:29.275Z,1023.68
2019-04-19T12:16:28.747Z,1023.70
2019-04-19T12:17:29.158Z,1023.66
2019-04-19T12:18:28.487Z,1023.67
2019-04-19T12:19:37.035Z,1023.60
2019-04-19T12:20:28.978Z,1023.62
2019-04-19T12:21:29.264Z,1023.65
2019-04-19T12:22:27.967Z,1023.67
2019-04-19T12:23:27.994Z,1023.68
2019-04-19T12:24:28.801Z,1023.67
2019-04-19T12:25:29.817Z,1023.68
2019-04-19T12:26:29.466Z,1023.73
2019-04-19T12:27:28.093Z,1023.69
2019-04-19T12:28:28.118Z,1023.75
2019-04-19T12:29:35.358Z,1023.69
2019-04-19T12:30:29.463Z,1023.68
2019-04-19T12:31:29.491Z,1023.70